sensor_id;sensor_type;location;lat;lon;timestamp;temperature;humidity
14119;DHT22;7138;49.246;9.100;2022-08-25T00:01:10;19.60;99.90
14119;DHT22;7138;49.246;9.100;2022-08-25T00:03:38;19.50;99.90
14119;DHT22;7138;49.246;9.100;2022-08-25T00:06:05;19.50;99.90
14119;DHT22;7138;49.246;9.100;2022-08-25T00:08:32;19.40;99.90
14119;DHT22;7138;49.246;9.100;2022-08-25T00:10:59;19.40;99.90
14119;DHT22;7138;49.246;9.100;2022-08-25T00:13:25;19.40;99.90
14119;DHT22;7138;49.246;9.100;2022-08-25T00:15:53;19.30;99.90
14119;DHT22;7138;49.246;9.100;2022-08-25T00:18:19;19.40;99.90
14119;DHT22;7138;49.246;9.100;2022-08-25T00:20:45;19.30;99.90
14119;DHT22;7138;49.246;9.100;2022-08-25T00:23:12;19.30;99.90
14119;DHT22;7138;49.246;9.100;2022-08-25T00:25:38;19.30;99.90
14119;DHT22;7138;49.246;9.100;2022-08-25T00:28:04;19.30;99.90
14119;DHT22;7138;49.246;9.100;2022-08-25T00:30:29;19.20;99.90
14119;DHT22;7138;49.246;9.100;2022-08-25T00:32:57;19.10;99.90
14119;DHT22;7138;49.246;9.100;2022-08-25T00:35:24;19.00;99.90
14119;DHT22;7138;49.246;9.100;2022-08-25T00:37:51;19.00;99.90
14119;DHT22;7138;49.246;9.100;2022-08-25T00:40:17;19.00;99.90
14119;DHT22;7138;49.246;9.100;2022-08-25T00:42:43;19.00;99.90
14119;DHT22;7138;49.246;9.100;2022-08-25T00:45:09;18.90;99.90
14119;DHT22;7138;49.246;9.100;2022-08-25T00:47:35;18.90;99.90
14119;DHT22;7138;49.246;9.100;2022-08-25T00:50:05;18.90;99.90
14119;DHT22;7138;49.246;9.100;2022-08-25T00:52:35;18.80;99.90
14119;DHT22;7138;49.246;9.100;2022-08-25T00:55:07;18.80;99.90
14119;DHT22;7138;49.246;9.100;2022-08-25T00:57:38;18.80;99.90
14119;DHT22;7138;49.246;9.100;2022-08-25T01:00:13;18.70;99.90
14119;DHT22;7138;49.246;9.100;2022-08-25T01:02:41;18.70;99.90
14119;DHT22;7138;49.246;9.100;2022-08-25T01:05:09;18.70;99.90
14119;DHT22;7138;49.246;9.100;2022-08-25T01:07:35;18.70;99.90
14119;DHT22;7138;49.246;9.100;2022-08-25T01:10:04;18.60;99.90
14119;DHT22;7138;49.246;9.100;2022-08-25T01:12:32;18.60;99.90
14119;DHT22;7138;49.246;9.100;2022-08-25T01:14:59;18.60;99.90
14119;DHT22;7138;49.246;9.100;2022-08-25T01:17:32;18.60;99.90
14119;DHT22;7138;49.246;9.100;2022-08-25T01:19:59;18.70;99.90
14119;DHT22;7138;49.246;9.100;2022-08-25T01:22:26;18.70;99.90
14119;DHT22;7138;49.246;9.100;2022-08-25T01:24:56;18.60;99.90
14119;DHT22;7138;49.246;9.100;2022-08-25T01:27:26;18.60;99.90
14119;DHT22;7138;49.246;9.100;2022-08-25T01:29:53;18.60;99.90
14119;DHT22;7138;49.246;9.100;2022-08-25T01:32:19;18.60;99.90
14119;DHT22;7138;49.246;9.100;2022-08-25T01:34:45;18.60;99.90
14119;DHT22;7138;49.246;9.100;2022-08-25T01:37:12;18.60;99.90
14119;DHT22;7138;49.246;9.100;2022-08-25T01:39:41;18.50;99.90
14119;DHT22;7138;49.246;9.100;2022-08-25T01:42:23;18.50;99.90
14119;DHT22;7138;49.246;9.100;2022-08-25T01:44:58;18.40;99.90
14119;DHT22;7138;49.246;9.100;2022-08-25T01:47:23;18.40;99.90
14119;DHT22;7138;49.246;9.100;2022-08-25T01:49:49;18.40;99.90
14119;DHT22;7138;49.246;9.100;2022-08-25T01:52:19;18.40;99.90
14119;DHT22;7138;49.246;9.100;2022-08-25T01:54:50;18.40;99.90
14119;DHT22;7138;49.246;9.100;2022-08-25T01:57:16;18.30;99.90
14119;DHT22;7138;49.246;9.100;2022-08-25T01:59:42;18.30;99.90
14119;DHT22;7138;49.246;9.100;2022-08-25T02:02:09;18.40;99.90
14119;DHT22;7138;49.246;9.100;2022-08-25T02:04:35;18.40;99.90
14119;DHT22;7138;49.246;9.100;2022-08-25T02:07:04;18.40;99.90
14119;DHT22;7138;49.246;9.100;2022-08-25T02:09:33;18.40;99.90
14119;DHT22;7138;49.246;9.100;2022-08-25T02:12:01;18.40;99.90
14119;DHT22;7138;49.246;9.100;2022-08-25T02:14:27;18.40;99.90
14119;DHT22;7138;49.246;9.100;2022-08-25T02:16:53;18.40;99.90
14119;DHT22;7138;49.246;9.100;2022-08-25T02:19:21;18.30;99.90
14119;DHT22;7138;49.246;9.100;2022-08-25T02:21:48;18.30;99.90
14119;DHT22;7138;49.246;9.100;2022-08-25T02:24:15;18.20;99.90
14119;DHT22;7138;49.246;9.100;2022-08-25T02:26:41;18.20;99.90
14119;DHT22;7138;49.246;9.100;2022-08-25T02:29:10;18.20;99.90
14119;DHT22;7138;49.246;9.100;2022-08-25T02:31:36;18.10;99.90
14119;DHT22;7138;49.246;9.100;2022-08-25T02:34:03;18.10;99.90
14119;DHT22;7138;49.246;9.100;2022-08-25T02:36:30;18.00;99.90
14119;DHT22;7138;49.246;9.100;2022-08-25T02:38:57;18.00;99.90
14119;DHT22;7138;49.246;9.100;2022-08-25T02:41:24;17.90;99.90
14119;DHT22;7138;49.246;9.100;2022-08-25T02:43:51;17.90;99.90
14119;DHT22;7138;49.246;9.100;2022-08-25T02:46:21;17.80;99.90
14119;DHT22;7138;49.246;9.100;2022-08-25T02:48:47;17.80;99.90
14119;DHT22;7138;49.246;9.100;2022-08-25T02:51:14;17.70;99.90
14119;DHT22;7138;49.246;9.100;2022-08-25T02:53:41;17.70;99.90
14119;DHT22;7138;49.246;9.100;2022-08-25T02:56:12;17.70;99.90
14119;DHT22;7138;49.246;9.100;2022-08-25T02:58:39;17.70;99.90
14119;DHT22;7138;49.246;9.100;2022-08-25T03:01:06;17.70;99.90
14119;DHT22;7138;49.246;9.100;2022-08-25T03:03:37;17.70;99.90
14119;DHT22;7138;49.246;9.100;2022-08-25T03:06:05;17.60;99.90
14119;DHT22;7138;49.246;9.100;2022-08-25T03:08:32;17.60;99.90
14119;DHT22;7138;49.246;9.100;2022-08-25T03:10:58;17.50;99.90
14119;DHT22;7138;49.246;9.100;2022-08-25T03:13:27;17.50;99.90
14119;DHT22;7138;49.246;9.100;2022-08-25T03:15:52;17.50;99.90
14119;DHT22;7138;49.246;9.100;2022-08-25T03:18:18;17.50;99.90
14119;DHT22;7138;49.246;9.100;2022-08-25T03:20:46;17.50;99.90
14119;DHT22;7138;49.246;9.100;2022-08-25T03:23:11;17.40;99.90
14119;DHT22;7138;49.246;9.100;2022-08-25T03:25:38;17.40;99.90
14119;DHT22;7138;49.246;9.100;2022-08-25T03:28:22;17.40;99.90
14119;DHT22;7138;49.246;9.100;2022-08-25T03:30:48;17.30;99.90
14119;DHT22;7138;49.246;9.100;2022-08-25T03:33:14;17.30;99.90
14119;DHT22;7138;49.246;9.100;2022-08-25T03:35:41;17.30;99.90
14119;DHT22;7138;49.246;9.100;2022-08-25T03:38:08;17.30;99.90
14119;DHT22;7138;49.246;9.100;2022-08-25T03:40:34;17.30;99.90
14119;DHT22;7138;49.246;9.100;2022-08-25T03:43:00;17.20;99.90
14119;DHT22;7138;49.246;9.100;2022-08-25T03:45:25;17.20;99.90
14119;DHT22;7138;49.246;9.100;2022-08-25T03:47:52;17.20;99.90
14119;DHT22;7138;49.246;9.100;2022-08-25T03:50:20;17.30;99.90
14119;DHT22;7138;49.246;9.100;2022-08-25T03:52:50;17.20;99.90
14119;DHT22;7138;49.246;9.100;2022-08-25T03:55:21;17.20;99.90
14119;DHT22;7138;49.246;9.100;2022-08-25T03:57:48;17.20;99.90
14119;DHT22;7138;49.246;9.100;2022-08-25T04:00:15;17.20;99.90
14119;DHT22;7138;49.246;9.100;2022-08-25T04:02:41;17.10;99.90
14119;DHT22;7138;49.246;9.100;2022-08-25T04:05:08;17.10;99.90
14119;DHT22;7138;49.246;9.100;2022-08-25T04:07:34;17.10;99.90
14119;DHT22;7138;49.246;9.100;2022-08-25T04:10:00;17.10;99.90
14119;DHT22;7138;49.246;9.100;2022-08-25T04:12:28;17.00;99.90
14119;DHT22;7138;49.246;9.100;2022-08-25T04:14:53;16.90;99.90
14119;DHT22;7138;49.246;9.100;2022-08-25T04:17:19;16.90;99.90
14119;DHT22;7138;49.246;9.100;2022-08-25T04:19:46;16.80;99.90
14119;DHT22;7138;49.246;9.100;2022-08-25T04:22:12;16.80;99.90
14119;DHT22;7138;49.246;9.100;2022-08-25T04:24:38;16.80;99.90
14119;DHT22;7138;49.246;9.100;2022-08-25T04:27:04;16.80;99.90
14119;DHT22;7138;49.246;9.100;2022-08-25T04:29:31;16.80;99.90
14119;DHT22;7138;49.246;9.100;2022-08-25T04:31:57;16.80;99.90
14119;DHT22;7138;49.246;9.100;2022-08-25T04:34:24;16.80;99.90
14119;DHT22;7138;49.246;9.100;2022-08-25T04:36:51;16.80;99.90
14119;DHT22;7138;49.246;9.100;2022-08-25T04:39:18;16.80;99.90
14119;DHT22;7138;49.246;9.100;2022-08-25T04:41:45;16.80;99.90
14119;DHT22;7138;49.246;9.100;2022-08-25T04:44:11;16.80;99.90
14119;DHT22;7138;49.246;9.100;2022-08-25T04:46:38;16.90;99.90
14119;DHT22;7138;49.246;9.100;2022-08-25T04:49:04;16.90;99.90
14119;DHT22;7138;49.246;9.100;2022-08-25T04:51:33;16.90;99.90
14119;DHT22;7138;49.246;9.100;2022-08-25T04:54:04;16.80;99.90
14119;DHT22;7138;49.246;9.100;2022-08-25T04:56:32;16.80;99.90
14119;DHT22;7138;49.246;9.100;2022-08-25T04:59:03;16.90;99.90
14119;DHT22;7138;49.246;9.100;2022-08-25T05:01:31;16.90;99.90
14119;DHT22;7138;49.246;9.100;2022-08-25T05:04:00;17.00;99.90
14119;DHT22;7138;49.246;9.100;2022-08-25T05:06:28;17.10;99.90
14119;DHT22;7138;49.246;9.100;2022-08-25T05:08:55;17.10;99.90
14119;DHT22;7138;49.246;9.100;2022-08-25T05:11:22;17.10;99.90
14119;DHT22;7138;49.246;9.100;2022-08-25T05:13:50;17.10;99.90
14119;DHT22;7138;49.246;9.100;2022-08-25T05:16:18;17.30;99.90
14119;DHT22;7138;49.246;9.100;2022-08-25T05:18:45;17.60;99.90
14119;DHT22;7138;49.246;9.100;2022-08-25T05:21:13;18.20;99.90
14119;DHT22;7138;49.246;9.100;2022-08-25T05:23:41;18.80;99.90
14119;DHT22;7138;49.246;9.100;2022-08-25T05:26:10;19.20;99.90
14119;DHT22;7138;49.246;9.100;2022-08-25T05:28:38;19.50;99.90
14119;DHT22;7138;49.246;9.100;2022-08-25T05:31:06;20.00;99.90
14119;DHT22;7138;49.246;9.100;2022-08-25T05:33:35;20.40;99.90
14119;DHT22;7138;49.246;9.100;2022-08-25T05:36:02;20.80;99.90
14119;DHT22;7138;49.246;9.100;2022-08-25T05:38:30;20.90;99.90
14119;DHT22;7138;49.246;9.100;2022-08-25T05:40:56;21.30;99.90
14119;DHT22;7138;49.246;9.100;2022-08-25T05:43:27;21.70;99.90
14119;DHT22;7138;49.246;9.100;2022-08-25T05:45:53;22.00;99.90
14119;DHT22;7138;49.246;9.100;2022-08-25T05:48:20;22.40;99.90
14119;DHT22;7138;49.246;9.100;2022-08-25T05:50:50;22.70;99.90
14119;DHT22;7138;49.246;9.100;2022-08-25T05:53:16;23.00;99.90
14119;DHT22;7138;49.246;9.100;2022-08-25T05:55:44;23.30;99.90
14119;DHT22;7138;49.246;9.100;2022-08-25T05:58:10;23.60;99.90
14119;DHT22;7138;49.246;9.100;2022-08-25T06:00:36;23.70;99.90
14119;DHT22;7138;49.246;9.100;2022-08-25T06:03:03;24.10;99.90
14119;DHT22;7138;49.246;9.100;2022-08-25T06:05:29;24.40;99.90
14119;DHT22;7138;49.246;9.100;2022-08-25T06:07:57;24.30;99.90
14119;DHT22;7138;49.246;9.100;2022-08-25T06:10:23;24.60;99.90
14119;DHT22;7138;49.246;9.100;2022-08-25T06:12:51;24.90;99.90
14119;DHT22;7138;49.246;9.100;2022-08-25T06:15:19;25.20;99.90
14119;DHT22;7138;49.246;9.100;2022-08-25T06:17:47;25.20;99.90
14119;DHT22;7138;49.246;9.100;2022-08-25T06:20:16;25.60;99.90
14119;DHT22;7138;49.246;9.100;2022-08-25T06:22:43;25.20;99.90
14119;DHT22;7138;49.246;9.100;2022-08-25T06:25:11;25.10;99.90
14119;DHT22;7138;49.246;9.100;2022-08-25T06:27:39;25.40;99.90
14119;DHT22;7138;49.246;9.100;2022-08-25T06:30:09;25.50;99.90
14119;DHT22;7138;49.246;9.100;2022-08-25T06:32:40;25.40;99.90
14119;DHT22;7138;49.246;9.100;2022-08-25T06:35:11;25.40;99.90
14119;DHT22;7138;49.246;9.100;2022-08-25T06:37:39;25.50;99.90
14119;DHT22;7138;49.246;9.100;2022-08-25T06:40:07;24.90;99.90
14119;DHT22;7138;49.246;9.100;2022-08-25T06:42:34;25.00;99.90
14119;DHT22;7138;49.246;9.100;2022-08-25T06:45:01;24.80;99.90
14119;DHT22;7138;49.246;9.100;2022-08-25T06:47:28;24.80;99.90
14119;DHT22;7138;49.246;9.100;2022-08-25T06:49:54;24.70;99.90
14119;DHT22;7138;49.246;9.100;2022-08-25T06:52:21;24.60;99.90
14119;DHT22;7138;49.246;9.100;2022-08-25T06:54:46;24.60;99.90
14119;DHT22;7138;49.246;9.100;2022-08-25T06:57:12;24.20;99.90
14119;DHT22;7138;49.246;9.100;2022-08-25T06:59:39;24.40;99.90
14119;DHT22;7138;49.246;9.100;2022-08-25T07:02:05;24.60;99.90
14119;DHT22;7138;49.246;9.100;2022-08-25T07:04:33;24.50;99.90
14119;DHT22;7138;49.246;9.100;2022-08-25T07:07:01;24.60;99.90
14119;DHT22;7138;49.246;9.100;2022-08-25T07:09:27;24.60;99.90
14119;DHT22;7138;49.246;9.100;2022-08-25T07:11:53;24.80;99.90
14119;DHT22;7138;49.246;9.100;2022-08-25T07:14:20;25.30;99.90
14119;DHT22;7138;49.246;9.100;2022-08-25T07:16:47;25.70;99.90
14119;DHT22;7138;49.246;9.100;2022-08-25T07:19:13;25.70;99.90
14119;DHT22;7138;49.246;9.100;2022-08-25T07:21:41;25.70;99.90
14119;DHT22;7138;49.246;9.100;2022-08-25T07:24:11;25.60;99.90
14119;DHT22;7138;49.246;9.100;2022-08-25T07:26:40;26.20;99.90
14119;DHT22;7138;49.246;9.100;2022-08-25T07:29:08;25.80;99.90
14119;DHT22;7138;49.246;9.100;2022-08-25T07:31:36;26.00;99.90
14119;DHT22;7138;49.246;9.100;2022-08-25T07:34:03;26.10;99.90
14119;DHT22;7138;49.246;9.100;2022-08-25T07:36:49;26.00;99.90
14119;DHT22;7138;49.246;9.100;2022-08-25T07:39:14;25.80;99.90
14119;DHT22;7138;49.246;9.100;2022-08-25T07:41:41;26.30;99.90
14119;DHT22;7138;49.246;9.100;2022-08-25T07:44:09;26.20;99.90
14119;DHT22;7138;49.246;9.100;2022-08-25T07:46:36;26.00;99.90
14119;DHT22;7138;49.246;9.100;2022-08-25T07:49:02;26.10;99.90
14119;DHT22;7138;49.246;9.100;2022-08-25T07:51:29;26.20;99.90
14119;DHT22;7138;49.246;9.100;2022-08-25T07:53:56;26.60;99.90
14119;DHT22;7138;49.246;9.100;2022-08-25T07:56:22;26.60;99.90
14119;DHT22;7138;49.246;9.100;2022-08-25T07:58:48;26.50;99.90
14119;DHT22;7138;49.246;9.100;2022-08-25T08:01:16;26.30;99.90
14119;DHT22;7138;49.246;9.100;2022-08-25T08:03:43;26.80;99.90
14119;DHT22;7138;49.246;9.100;2022-08-25T08:06:11;26.60;99.90
14119;DHT22;7138;49.246;9.100;2022-08-25T08:08:40;26.80;99.90
14119;DHT22;7138;49.246;9.100;2022-08-25T08:11:14;27.10;99.90
14119;DHT22;7138;49.246;9.100;2022-08-25T08:13:42;27.00;99.90
14119;DHT22;7138;49.246;9.100;2022-08-25T08:16:08;27.10;99.90
14119;DHT22;7138;49.246;9.100;2022-08-25T08:18:35;27.30;99.90
14119;DHT22;7138;49.246;9.100;2022-08-25T08:21:01;26.60;99.90
14119;DHT22;7138;49.246;9.100;2022-08-25T08:23:27;27.00;99.90
14119;DHT22;7138;49.246;9.100;2022-08-25T08:25:54;27.50;99.90
14119;DHT22;7138;49.246;9.100;2022-08-25T08:28:21;27.50;99.90
14119;DHT22;7138;49.246;9.100;2022-08-25T08:30:49;27.40;99.90
14119;DHT22;7138;49.246;9.100;2022-08-25T08:33:14;27.70;99.90
14119;DHT22;7138;49.246;9.100;2022-08-25T08:35:40;27.80;99.90
14119;DHT22;7138;49.246;9.100;2022-08-25T08:38:07;27.90;99.90
14119;DHT22;7138;49.246;9.100;2022-08-25T08:40:47;27.90;99.90
14119;DHT22;7138;49.246;9.100;2022-08-25T08:44:00;28.00;99.90
14119;DHT22;7138;49.246;9.100;2022-08-25T08:46:34;28.10;99.90
14119;DHT22;7138;49.246;9.100;2022-08-25T08:49:10;28.50;99.90
14119;DHT22;7138;49.246;9.100;2022-08-25T08:51:53;28.50;99.90
14119;DHT22;7138;49.246;9.100;2022-08-25T08:54:24;28.80;99.90
14119;DHT22;7138;49.246;9.100;2022-08-25T08:57:03;28.90;99.90
14119;DHT22;7138;49.246;9.100;2022-08-25T08:59:41;29.40;99.90
14119;DHT22;7138;49.246;9.100;2022-08-25T09:02:22;29.10;99.90
14119;DHT22;7138;49.246;9.100;2022-08-25T09:04:54;29.00;99.90
14119;DHT22;7138;49.246;9.100;2022-08-25T09:07:30;28.80;99.90
14119;DHT22;7138;49.246;9.100;2022-08-25T09:10:04;29.20;99.90
14119;DHT22;7138;49.246;9.100;2022-08-25T09:12:35;29.60;99.90
14119;DHT22;7138;49.246;9.100;2022-08-25T09:15:14;29.10;99.90
14119;DHT22;7138;49.246;9.100;2022-08-25T09:18:04;29.40;99.90
14119;DHT22;7138;49.246;9.100;2022-08-25T09:20:47;29.60;99.90
14119;DHT22;7138;49.246;9.100;2022-08-25T09:23:37;29.80;99.90
14119;DHT22;7138;49.246;9.100;2022-08-25T09:26:24;29.10;99.90
14119;DHT22;7138;49.246;9.100;2022-08-25T09:29:01;29.30;99.90
14119;DHT22;7138;49.246;9.100;2022-08-25T09:31:33;29.10;99.90
14119;DHT22;7138;49.246;9.100;2022-08-25T09:34:02;29.60;99.90
14119;DHT22;7138;49.246;9.100;2022-08-25T09:36:31;29.40;99.90
14119;DHT22;7138;49.246;9.100;2022-08-25T09:38:58;29.50;99.90
14119;DHT22;7138;49.246;9.100;2022-08-25T09:41:39;30.00;99.90
14119;DHT22;7138;49.246;9.100;2022-08-25T09:44:17;30.10;99.90
14119;DHT22;7138;49.246;9.100;2022-08-25T09:46:57;29.50;99.90
14119;DHT22;7138;49.246;9.100;2022-08-25T09:49:33;29.50;99.90
14119;DHT22;7138;49.246;9.100;2022-08-25T09:52:25;28.90;99.90
14119;DHT22;7138;49.246;9.100;2022-08-25T09:55:22;29.40;99.90
14119;DHT22;7138;49.246;9.100;2022-08-25T09:57:52;29.40;99.90
14119;DHT22;7138;49.246;9.100;2022-08-25T10:00:23;29.50;99.90
14119;DHT22;7138;49.246;9.100;2022-08-25T10:03:10;29.40;99.90
14119;DHT22;7138;49.246;9.100;2022-08-25T10:05:54;29.30;99.90
14119;DHT22;7138;49.246;9.100;2022-08-25T10:08:31;29.80;99.90
14119;DHT22;7138;49.246;9.100;2022-08-25T10:11:03;29.90;99.50
14119;DHT22;7138;49.246;9.100;2022-08-25T10:13:36;30.00;99.90
14119;DHT22;7138;49.246;9.100;2022-08-25T10:16:11;30.20;99.10
14119;DHT22;7138;49.246;9.100;2022-08-25T10:19:00;29.90;99.50
14119;DHT22;7138;49.246;9.100;2022-08-25T10:21:30;29.60;99.10
14119;DHT22;7138;49.246;9.100;2022-08-25T10:23:56;29.90;99.10
14119;DHT22;7138;49.246;9.100;2022-08-25T10:26:33;30.40;99.70
14119;DHT22;7138;49.246;9.100;2022-08-25T10:29:15;30.10;98.90
14119;DHT22;7138;49.246;9.100;2022-08-25T10:31:56;30.60;98.50
14119;DHT22;7138;49.246;9.100;2022-08-25T10:34:37;30.70;98.80
14119;DHT22;7138;49.246;9.100;2022-08-25T10:37:15;30.70;99.00
14119;DHT22;7138;49.246;9.100;2022-08-25T10:39:59;29.10;98.70
14119;DHT22;7138;49.246;9.100;2022-08-25T10:42:38;29.70;99.50
14119;DHT22;7138;49.246;9.100;2022-08-25T10:45:17;30.20;98.60
14119;DHT22;7138;49.246;9.100;2022-08-25T10:48:28;30.20;98.00
14119;DHT22;7138;49.246;9.100;2022-08-25T10:51:28;30.40;98.70
14119;DHT22;7138;49.246;9.100;2022-08-25T10:54:06;30.10;97.30
14119;DHT22;7138;49.246;9.100;2022-08-25T10:56:48;30.30;98.00
14119;DHT22;7138;49.246;9.100;2022-08-25T10:59:33;30.80;96.90
14119;DHT22;7138;49.246;9.100;2022-08-25T11:05:41;31.90;95.60
14119;DHT22;7138;49.246;9.100;2022-08-25T11:08:15;31.40;94.70
14119;DHT22;7138;49.246;9.100;2022-08-25T11:10:55;31.20;95.40
14119;DHT22;7138;49.246;9.100;2022-08-25T11:13:35;31.20;95.00
14119;DHT22;7138;49.246;9.100;2022-08-25T11:16:10;31.00;94.30
14119;DHT22;7138;49.246;9.100;2022-08-25T11:18:45;31.10;94.40
14119;DHT22;7138;49.246;9.100;2022-08-25T11:21:19;31.00;93.50
14119;DHT22;7138;49.246;9.100;2022-08-25T11:23:54;30.90;94.20
14119;DHT22;7138;49.246;9.100;2022-08-25T11:26:29;31.30;94.00
14119;DHT22;7138;49.246;9.100;2022-08-25T11:29:03;31.50;93.70
14119;DHT22;7138;49.246;9.100;2022-08-25T11:31:37;31.40;93.40
14119;DHT22;7138;49.246;9.100;2022-08-25T11:34:07;32.20;93.40
14119;DHT22;7138;49.246;9.100;2022-08-25T11:36:36;32.80;92.50
14119;DHT22;7138;49.246;9.100;2022-08-25T11:39:15;31.80;92.90
14119;DHT22;7138;49.246;9.100;2022-08-25T11:41:59;31.70;93.70
14119;DHT22;7138;49.246;9.100;2022-08-25T11:44:51;31.80;92.50
14119;DHT22;7138;49.246;9.100;2022-08-25T11:47:40;31.50;92.90
14119;DHT22;7138;49.246;9.100;2022-08-25T11:50:31;31.50;94.00
14119;DHT22;7138;49.246;9.100;2022-08-25T11:53:02;31.90;92.30
14119;DHT22;7138;49.246;9.100;2022-08-25T11:55:48;32.10;92.10
14119;DHT22;7138;49.246;9.100;2022-08-25T11:58:41;31.80;92.70
14119;DHT22;7138;49.246;9.100;2022-08-25T12:04:38;31.90;92.30
14119;DHT22;7138;49.246;9.100;2022-08-25T12:07:19;32.60;91.40
14119;DHT22;7138;49.246;9.100;2022-08-25T12:10:14;33.20;91.50
14119;DHT22;7138;49.246;9.100;2022-08-25T12:12:57;32.90;90.30
14119;DHT22;7138;49.246;9.100;2022-08-25T12:15:54;33.60;90.10
14119;DHT22;7138;49.246;9.100;2022-08-25T12:18:45;33.40;88.90
14119;DHT22;7138;49.246;9.100;2022-08-25T12:21:15;33.20;90.00
14119;DHT22;7138;49.246;9.100;2022-08-25T12:24:14;33.30;90.20
14119;DHT22;7138;49.246;9.100;2022-08-25T12:26:50;34.20;88.30
14119;DHT22;7138;49.246;9.100;2022-08-25T12:29:30;33.90;89.20
14119;DHT22;7138;49.246;9.100;2022-08-25T12:32:22;33.10;89.30
14119;DHT22;7138;49.246;9.100;2022-08-25T12:35:20;33.00;89.00
14119;DHT22;7138;49.246;9.100;2022-08-25T12:37:57;32.20;88.80
14119;DHT22;7138;49.246;9.100;2022-08-25T12:40:35;32.90;89.60
14119;DHT22;7138;49.246;9.100;2022-08-25T12:43:07;32.40;89.10
14119;DHT22;7138;49.246;9.100;2022-08-25T12:45:40;32.60;88.50
14119;DHT22;7138;49.246;9.100;2022-08-25T12:48:52;33.40;86.80
14119;DHT22;7138;49.246;9.100;2022-08-25T12:51:21;32.90;86.40
14119;DHT22;7138;49.246;9.100;2022-08-25T12:53:50;32.60;86.50
14119;DHT22;7138;49.246;9.100;2022-08-25T12:56:27;32.20;87.50
14119;DHT22;7138;49.246;9.100;2022-08-25T12:59:11;32.70;87.40
14119;DHT22;7138;49.246;9.100;2022-08-25T13:05:19;33.90;84.40
14119;DHT22;7138;49.246;9.100;2022-08-25T13:08:49;33.40;84.50
14119;DHT22;7138;49.246;9.100;2022-08-25T13:11:32;32.80;85.00
14119;DHT22;7138;49.246;9.100;2022-08-25T13:14:07;32.40;86.00
14119;DHT22;7138;49.246;9.100;2022-08-25T13:16:51;32.80;84.80
14119;DHT22;7138;49.246;9.100;2022-08-25T13:19:19;33.00;84.20
14119;DHT22;7138;49.246;9.100;2022-08-25T13:21:48;33.20;83.40
14119;DHT22;7138;49.246;9.100;2022-08-25T13:24:18;32.40;84.50
14119;DHT22;7138;49.246;9.100;2022-08-25T13:26:49;32.40;85.20
14119;DHT22;7138;49.246;9.100;2022-08-25T13:29:21;32.40;85.50
14119;DHT22;7138;49.246;9.100;2022-08-25T13:31:52;32.90;86.10
14119;DHT22;7138;49.246;9.100;2022-08-25T13:34:24;33.00;84.20
14119;DHT22;7138;49.246;9.100;2022-08-25T13:36:52;33.50;84.20
14119;DHT22;7138;49.246;9.100;2022-08-25T13:39:37;33.30;84.50
14119;DHT22;7138;49.246;9.100;2022-08-25T13:42:09;33.40;83.50
14119;DHT22;7138;49.246;9.100;2022-08-25T13:44:38;32.90;84.60
14119;DHT22;7138;49.246;9.100;2022-08-25T13:47:06;33.50;84.10
14119;DHT22;7138;49.246;9.100;2022-08-25T13:49:35;33.30;84.60
14119;DHT22;7138;49.246;9.100;2022-08-25T13:52:04;32.20;84.10
14119;DHT22;7138;49.246;9.100;2022-08-25T13:54:34;32.90;84.90
14119;DHT22;7138;49.246;9.100;2022-08-25T13:57:05;32.90;84.90
14119;DHT22;7138;49.246;9.100;2022-08-25T13:59:34;33.60;83.50
14119;DHT22;7138;49.246;9.100;2022-08-25T14:02:04;33.70;81.40
14119;DHT22;7138;49.246;9.100;2022-08-25T14:04:42;32.80;83.70
14119;DHT22;7138;49.246;9.100;2022-08-25T14:07:28;32.40;84.30
14119;DHT22;7138;49.246;9.100;2022-08-25T14:09:57;32.30;85.00
14119;DHT22;7138;49.246;9.100;2022-08-25T14:12:34;32.50;83.90
14119;DHT22;7138;49.246;9.100;2022-08-25T14:15:08;32.80;84.20
14119;DHT22;7138;49.246;9.100;2022-08-25T14:17:39;32.70;85.40
14119;DHT22;7138;49.246;9.100;2022-08-25T14:20:18;32.40;83.60
14119;DHT22;7138;49.246;9.100;2022-08-25T14:22:56;31.80;85.10
14119;DHT22;7138;49.246;9.100;2022-08-25T14:25:23;32.20;85.60
14119;DHT22;7138;49.246;9.100;2022-08-25T14:27:54;32.70;85.40
14119;DHT22;7138;49.246;9.100;2022-08-25T14:30:20;32.60;83.40
14119;DHT22;7138;49.246;9.100;2022-08-25T14:32:46;32.40;84.40
14119;DHT22;7138;49.246;9.100;2022-08-25T14:35:12;32.80;82.90
14119;DHT22;7138;49.246;9.100;2022-08-25T14:37:38;32.60;81.60
14119;DHT22;7138;49.246;9.100;2022-08-25T14:40:06;32.80;82.50
14119;DHT22;7138;49.246;9.100;2022-08-25T14:42:32;33.00;82.60
14119;DHT22;7138;49.246;9.100;2022-08-25T14:44:58;32.30;83.30
14119;DHT22;7138;49.246;9.100;2022-08-25T14:47:24;32.20;84.10
14119;DHT22;7138;49.246;9.100;2022-08-25T14:49:50;32.00;84.30
14119;DHT22;7138;49.246;9.100;2022-08-25T14:52:19;32.00;85.10
14119;DHT22;7138;49.246;9.100;2022-08-25T14:54:49;32.30;83.60
14119;DHT22;7138;49.246;9.100;2022-08-25T14:57:16;32.00;84.60
14119;DHT22;7138;49.246;9.100;2022-08-25T14:59:42;31.60;84.50
14119;DHT22;7138;49.246;9.100;2022-08-25T15:02:09;31.90;85.10
14119;DHT22;7138;49.246;9.100;2022-08-25T15:04:38;31.60;84.40
14119;DHT22;7138;49.246;9.100;2022-08-25T15:07:04;32.10;84.80
14119;DHT22;7138;49.246;9.100;2022-08-25T15:09:53;32.30;84.30
14119;DHT22;7138;49.246;9.100;2022-08-25T15:12:20;32.00;84.20
14119;DHT22;7138;49.246;9.100;2022-08-25T15:14:47;31.90;83.70
14119;DHT22;7138;49.246;9.100;2022-08-25T15:17:13;31.70;84.10
14119;DHT22;7138;49.246;9.100;2022-08-25T15:19:41;31.60;83.30
14119;DHT22;7138;49.246;9.100;2022-08-25T15:22:07;31.70;84.30
14119;DHT22;7138;49.246;9.100;2022-08-25T15:24:33;31.80;84.10
14119;DHT22;7138;49.246;9.100;2022-08-25T15:27:02;31.50;84.50
14119;DHT22;7138;49.246;9.100;2022-08-25T15:29:31;31.40;84.70
14119;DHT22;7138;49.246;9.100;2022-08-25T15:32:00;31.00;85.90
14119;DHT22;7138;49.246;9.100;2022-08-25T15:34:28;31.10;85.30
14119;DHT22;7138;49.246;9.100;2022-08-25T15:36:55;31.00;84.60
14119;DHT22;7138;49.246;9.100;2022-08-25T15:39:22;30.90;84.50
14119;DHT22;7138;49.246;9.100;2022-08-25T15:41:49;30.90;85.10
14119;DHT22;7138;49.246;9.100;2022-08-25T15:44:17;31.00;84.10
14119;DHT22;7138;49.246;9.100;2022-08-25T15:46:44;30.90;84.30
14119;DHT22;7138;49.246;9.100;2022-08-25T15:49:11;30.80;84.60
14119;DHT22;7138;49.246;9.100;2022-08-25T15:51:37;30.80;84.80
14119;DHT22;7138;49.246;9.100;2022-08-25T15:54:03;30.90;86.20
14119;DHT22;7138;49.246;9.100;2022-08-25T15:56:29;31.20;85.00
14119;DHT22;7138;49.246;9.100;2022-08-25T15:58:56;31.00;84.40
14119;DHT22;7138;49.246;9.100;2022-08-25T16:01:23;31.30;85.40
14119;DHT22;7138;49.246;9.100;2022-08-25T16:03:53;31.40;85.00
14119;DHT22;7138;49.246;9.100;2022-08-25T16:06:20;31.50;83.60
14119;DHT22;7138;49.246;9.100;2022-08-25T16:08:46;31.70;83.30
14119;DHT22;7138;49.246;9.100;2022-08-25T16:11:15;31.40;82.30
14119;DHT22;7138;49.246;9.100;2022-08-25T16:13:43;31.30;82.90
14119;DHT22;7138;49.246;9.100;2022-08-25T16:16:10;31.00;83.10
14119;DHT22;7138;49.246;9.100;2022-08-25T16:18:35;31.00;84.10
14119;DHT22;7138;49.246;9.100;2022-08-25T16:21:03;31.10;83.50